Latest Weather Observations for Adelaide Airport

IDS60801

Issued at 10:21 pm CDT Thursday 17 January 2019 (issued every 10 minutes, with the page automatically refreshed every 10 minutes)

About weather observations | Map of weather stations | Latest weather observations for SA | Other Formats
Station Details ID: 023034 Name: ADELAIDE AIRPORT Lat: -34.95 Lon: 138.52 Height: 2.0 m
Data from the previous 72 hours. | See also: Recent months at Adelaide Airport
Date/Time
CDT
Temp
°C
App
Temp
°C
Dew
Point
°C
Rel
Hum
%
Delta-T
°C
Wind Press
QNH
hPa
Press
MSL
hPa
Rain since
9am
mm
Dir  Spd
km/h
Gust
km/h
Spd
kts
Gust
kts
17/10:00pm 30.4 28.6 12.2 32 10.7 SSE 13 15 7 8 1007.1 1007.0 0.0
17/09:30pm 30.4 29.2 12.7 33 10.5 ESE 11 15 6 8 1007.1 1007.0 0.0
17/09:00pm 30.4 28.0 12.7 33 10.5 S 17 20 9 11 1006.5 1006.4 0.0
17/08:30pm 30.3 28.8 13.2 35 10.2 SE 13 20 7 11 1006.8 1006.7 0.0
17/08:00pm 30.6 28.8 13.2 34 10.4 SSE 15 22 8 12 1007.3 1007.2 0.0
17/07:30pm 30.0 27.7 14.6 39 9.4 S 20 32 11 17 1007.2 1007.1 0.0
17/07:00pm 29.4 27.4 15.6 43 8.5 S 20 28 11 15 1007.5 1007.5 0.0
17/06:30pm 27.7 26.3 17.9 55 6.2 SSW 22 30 12 16 1007.9 1007.9 0.0
17/06:00pm 30.8 27.7 14.4 36 10.0 S 24 33 13 18 1007.2 1007.1 0.0
17/05:30pm 30.7 26.6 13.8 35 10.2 SSW 28 35 15 19 1006.9 1006.8 0.0
17/05:00pm 28.4 24.3 15.9 46 7.7 SSW 32 39 17 21 1006.7 1006.6 0.0
17/04:30pm 26.6 23.6 18.6 61 5.1 SSW 32 48 17 26 1007.0 1006.9 0.0
17/04:00pm 27.7 23.5 18.1 56 6.1 SSW 37 48 20 26 1006.8 1006.7 0.0
17/03:30pm 29.1 27.8 19.1 54 6.5 SSW 24 54 13 29 1006.8 1006.7 0.0
17/03:00pm 31.6 31.0 16.7 40 9.4 SSW 15 26 8 14 1006.5 1006.4 0.0
17/02:30pm 32.5 30.6 15.3 35 10.7 SW 19 22 10 12 1006.6 1006.5 0.0
17/02:19pm 32.9 31.1 16.0 36 10.6 SW 20 24 11 13 1006.7 1006.6 0.0
17/02:00pm 37.9 35.7 9.3 17 16.6 NNW 11 15 6 8 1006.6 1006.5 0.0
17/01:30pm 37.7 36.4 11.2 20 15.8 NNE 9 13 5 7 1006.8 1006.7 0.0
17/01:00pm 34.7 33.8 13.8 28 12.8 W 11 15 6 8 1007.2 1007.1 0.0
17/12:30pm 31.2 32.3 19.7 50 7.6 SW 13 17 7 9 1007.4 1007.4 0.0
17/12:00pm 32.6 34.3 18.6 43 9.1 WNW 7 15 4 8 1007.6 1007.6 0.0
17/11:30am 29.7 31.6 18.9 52 7.0 W 7 11 4 6 1007.8 1007.8 0.0
17/11:00am 29.1 30.9 19.6 56 6.2 WSW 9 13 5 7 1008.0 1008.0 0.0
17/10:30am 28.7 30.0 18.4 53 6.6 W 9 13 5 7 1007.9 1007.9 0.0
17/10:00am 28.4 30.0 19.1 57 6.0 WSW 9 17 5 9 1008.3 1008.3 0.0
17/09:30am 27.5 30.8 19.1 60 5.4 CALM 0 4 0 2 1008.5 1008.5 0.0
17/09:00am 26.9 28.4 18.8 61 5.2 WSW 9 11 5 6 1008.9 1008.9 0.0
17/08:30am 26.4 27.6 18.2 60 5.2 S 9 15 5 8 1008.9 1008.9 0.0
17/08:00am 25.3 25.9 18.7 67 4.2 NNW 13 19 7 10 1008.1 1008.1 0.0
17/07:30am 25.5 27.2 18.6 65 4.4 W 7 11 4 6 1007.8 1007.8 0.0
17/07:00am 26.8 25.3 15.3 49 7.0 N 17 24 9 13 1007.6 1007.6 0.0
17/06:30am 25.9 27.5 15.9 54 6.1 NW 2 7 1 4 1007.2 1007.1 0.0
17/06:00am 25.3 26.0 17.1 60 5.1 SE 9 9 5 5 1007.0 1006.9 0.0
17/05:30am 25.0 27.1 17.1 61 4.9 S 2 7 1 4 1007.3 1007.2 0.0
17/05:00am 24.7 24.9 17.7 65 4.4 NE 13 15 7 8 1006.8 1006.7 0.0
17/04:30am 24.3 25.2 17.6 66 4.2 SW 9 11 5 6 1007.2 1007.1 0.0
17/04:00am 24.0 24.8 17.4 66 4.1 S 9 11 5 6 1007.5 1007.5 0.0
17/03:30am 24.1 24.1 17.2 65 4.3 SSW 13 19 7 10 1008.4 1008.4 0.0
17/03:00am 24.3 24.4 16.5 61 4.8 SSW 11 13 6 7 1008.9 1008.9 0.0
17/02:30am 24.7 23.4 16.8 61 4.9 SSW 19 26 10 14 1009.1 1009.1 0.0
17/02:00am 25.4 23.3 16.1 56 5.7 SSW 22 33 12 18 1009.3 1009.3 0.0
17/01:30am 23.8 21.0 20.3 81 2.3 W 35 52 19 28 1009.1 1009.1 0.0
17/01:23am 24.3 24.5 20.1 77 2.7 WNW 19 52 10 28 1008.9 1008.9 0.0
17/01:00am 26.2 28.0 19.6 67 4.3 NNE 9 9 5 5 1007.7 1007.7 0.0
17/12:30am 25.6 27.2 19.9 70 3.7 ENE 11 15 6 8 1007.7 1007.7 0.0
17/12:00am 24.8 26.1 20.2 75 3.0 N 13 19 7 10 1007.8 1007.8 0.0
 
Date/Time
CDT
Temp
°C
App
Temp
°C
Dew
Point
°C
Rel
Hum
%
Delta-T
°C
Wind Press
QNH
hPa
Press
MSL
hPa
Rain since
9am
mm
Dir  Spd
km/h
Gust
km/h
Spd
kts
Gust
kts
16/11:30pm 24.8 25.6 20.7 78 2.7 NW 17 28 9 15 1007.5 1007.5 0.0
16/11:00pm 27.1 27.0 18.7 60 5.4 N 17 26 9 14 1007.1 1007.0 0.0
16/10:30pm 26.6 27.6 18.6 61 5.1 NNE 11 13 6 7 1007.3 1007.2 0.0
16/10:00pm 25.8 27.6 19.5 68 4.1 WSW 9 15 5 8 1006.7 1006.6 0.0
16/09:30pm 25.5 25.3 19.8 70 3.7 WSW 20 28 11 15 1006.0 1005.9 0.0
16/09:00pm 29.9 29.7 17.7 48 7.8 SE 15 24 8 13 1005.2 1005.1 0.0
16/08:30pm 28.5 30.6 18.9 56 6.2 W 6 9 3 5 1006.1 1006.0 0.0
16/08:00pm 29.8 29.3 17.9 48 7.6 WNW 17 26 9 14 1005.9 1005.8 0.0
16/07:57pm 30.1 29.2 17.7 47 7.9 WNW 19 28 10 15 1005.8 1005.7 0.0
16/07:30pm 35.1 29.6 12.3 25 13.7 NNW 33 48 18 26 1005.4 1005.3 0.0
16/07:00pm 36.7 30.7 10.0 19 15.6 NNW 32 41 17 22 1004.9 1004.8 0.0
16/06:30pm 37.2 32.0 7.3 16 16.8 N 24 37 13 20 1005.1 1005.0 0.0
16/06:00pm 33.7 30.5 11.2 25 13.2 W 19 33 10 18 1005.1 1005.0 0.0
16/05:47pm 32.8 28.7 11.6 27 12.4 NNW 24 41 13 22 1005.3 1005.2 0.0
16/05:30pm 31.2 30.4 14.1 35 10.4 WNW 11 17 6 9 1005.1 1005.0 0.0
16/05:00pm 32.0 31.7 15.4 36 10.3 W 11 15 6 8 1004.6 1004.5 0.0
16/04:47pm 32.3 32.0 16.5 38 10.0 NNW 13 17 7 9 1004.7 1004.6 0.0
16/04:30pm 37.3 36.2 13.2 23 14.8 N 11 19 6 10 1004.9 1004.8 0.0
16/04:21pm 35.2 36.4 15.0 30 12.6 NNW 2 9 1 5 1004.8 1004.7 0.0
16/04:00pm 29.7 30.5 17.2 47 7.9 WNW 9 11 5 6 1005.0 1004.9 0.0
16/03:30pm 30.0 31.5 18.0 48 7.7 WSW 7 15 4 8 1005.3 1005.2 0.0
16/03:00pm 30.7 31.6 16.1 41 9.1 SSE 6 11 3 6 1005.8 1005.7 0.0
16/02:30pm 29.5 29.6 15.6 43 8.6 SW 9 15 5 8 1006.6 1006.5 0.0
16/02:00pm 27.4 26.2 18.3 57 5.8 WSW 22 33 12 18 1007.0 1006.9 0.0
16/01:55pm 27.6 26.3 19.1 59 5.5 WSW 24 33 13 18 1007.3 1007.2 0.0
16/01:33pm 32.6 32.2 17.1 39 9.9 N 15 20 8 11 1006.8 1006.7 0.0
16/01:30pm 37.6 35.8 13.4 23 14.9 N 15 19 8 10 1006.9 1006.8 0.0
16/01:00pm 35.6 34.8 12.8 25 13.8 SSE 9 13 5 7 1007.1 1007.0 0.0
16/12:30pm 31.2 31.0 14.7 36 10.1 ESE 9 11 5 6 1007.7 1007.7 0.0
16/12:00pm 27.5 29.0 17.5 54 6.3 SW 6 11 3 6 1008.6 1008.6 0.0
16/11:30am 28.1 26.8 15.9 47 7.5 WSW 17 28 9 15 1008.9 1008.9 0.0
16/11:00am 31.6 30.6 13.3 32 11.0 NNE 11 15 6 8 1008.6 1008.6 0.0
16/10:30am 32.6 29.5 7.3 20 13.9 ENE 13 15 7 8 1008.5 1008.5 0.0
16/10:00am 30.4 28.3 9.7 27 11.7 WNW 11 15 6 8 1009.0 1009.0 0.0
16/09:30am 28.7 25.6 8.7 28 11.0 NE 15 19 8 10 1008.8 1008.8 0.0
16/09:00am 27.3 25.4 10.4 34 9.5 NE 11 13 6 7 1009.3 1009.3 0.0
16/08:30am 25.9 25.1 12.8 44 7.6 SE 9 13 5 7 1009.8 1009.8 0.0
16/08:00am 25.2 26.3 14.7 52 6.3 ESE 2 9 1 5 1009.9 1009.9 0.0
16/07:30am 24.0 23.8 15.6 59 5.1 E 11 13 6 7 1009.3 1009.3 0.0
16/07:00am 23.6 24.3 17.1 67 4.0 E 9 11 5 6 1009.4 1009.4 0.0
16/06:30am 22.9 23.5 17.8 73 3.2 SSW 11 17 6 9 1008.9 1008.9 0.0
16/06:00am 22.6 23.3 18.8 79 2.4 WSW 13 20 7 11 1008.7 1008.7 0.0
16/05:30am 22.6 22.7 18.3 76 2.7 WSW 15 17 8 9 1007.5 1007.5 0.0
16/05:00am 21.4 19.8 8.0 42 7.0 NE 6 7 3 4 1006.8 1006.7 0.0
16/04:30am 22.4 21.2 7.9 39 7.6 ENE 4 6 2 3 1006.9 1006.8 0.0
16/04:00am 21.9 21.5 8.2 41 7.2 CALM 0 6 0 3 1007.3 1007.2 0.0
16/03:30am 22.4 21.7 6.9 36 8.0 CALM 0 0 0 0 1007.4 1007.4 0.0
16/03:00am 24.1 21.9 6.2 31 9.2 NE 7 7 4 4 1007.4 1007.4 0.0
16/02:30am 22.8 19.9 4.9 31 8.9 E 9 11 5 6 1007.6 1007.6 0.0
16/02:00am 25.8 23.3 3.9 24 10.9 SE 6 9 3 5 1007.8 1007.8 0.0
16/01:30am 26.4 22.7 2.3 21 11.7 S 11 11 6 6 1008.2 1008.2 0.0
16/01:00am 27.0 22.9 2.1 20 12.1 S 13 17 7 9 1008.0 1008.0 0.0
16/12:30am 26.6 21.7 4.1 23 11.3 SE 19 24 10 13 1008.3 1008.3 0.0
16/12:00am 27.5 22.3 3.5 21 12.0 SE 20 26 11 14 1008.6 1008.6 0.0
 
Date/Time
CDT
Temp
°C
App
Temp
°C
Dew
Point
°C
Rel
Hum
%
Delta-T
°C
Wind Press
QNH
hPa
Press
MSL
hPa
Rain since
9am
mm
Dir  Spd
km/h
Gust
km/h
Spd
kts
Gust
kts
15/11:30pm 28.6 22.8 4.3 21 12.4 SE 24 30 13 16 1008.8 1008.8 0.0
15/11:00pm 30.1 28.4 2.1 16 13.9 CALM 0 0 0 0 1008.8 1008.8 0.0
15/10:30pm 28.9 25.9 10.6 32 10.4 SSW 17 20 9 11 1008.7 1008.7 0.0
15/10:00pm 27.4 28.4 16.4 51 6.8 NNW 6 11 3 6 1007.9 1007.9 0.0
15/09:30pm 26.5 28.6 18.0 59 5.4 NE 4 9 2 5 1007.7 1007.7 0.0
15/09:00pm 26.0 27.5 18.8 64 4.6 W 9 13 5 7 1008.0 1008.0 0.0
15/08:30pm 27.0 26.6 16.3 52 6.6 S 13 17 7 9 1008.2 1008.2 0.0
15/08:00pm 27.8 24.9 16.0 48 7.3 SSW 26 37 14 20 1008.5 1008.5 0.0
15/07:48pm 28.1 27.3 17.9 54 6.5 SW 19 37 10 20 1008.3 1008.3 0.0
15/07:30pm 29.3 29.1 15.7 43 8.4 WSW 11 17 6 9 1007.6 1007.6 0.0
15/07:00pm 29.5 28.5 15.6 43 8.6 WSW 15 17 8 9 1007.3 1007.2 0.0
15/06:30pm 33.3 31.6 12.6 28 12.4 W 13 15 7 8 1007.0 1006.9 0.0
15/06:00pm 33.4 31.2 12.2 27 12.6 WSW 15 19 8 10 1007.1 1007.0 0.0
15/05:55pm 33.9 31.6 13.0 28 12.6 WSW 17 20 9 11 1007.1 1007.0 0.0
15/05:30pm 38.9 33.9 -4.3 6 20.5 SSW 13 19 7 10 1007.1 1007.0 0.0
15/05:00pm 38.1 32.8 2.8 11 18.6 SW 20 28 11 15 1007.5 1007.5 0.0
15/04:30pm 35.5 30.2 8.6 19 15.3 SW 26 32 14 17 1007.9 1007.9 0.0
15/04:00pm 36.0 31.2 7.4 17 16.0 SSW 22 28 12 15 1007.9 1007.9 0.0
15/03:30pm 35.7 30.5 7.4 17 15.8 SSW 24 30 13 16 1008.0 1008.0 0.0
15/03:00pm 33.6 30.1 12.3 27 12.7 SW 22 30 12 16 1008.5 1008.5 0.0
15/02:30pm 32.1 28.5 12.9 31 11.5 SSW 24 30 13 16 1008.9 1008.9 0.0
15/02:00pm 31.5 26.4 10.7 27 12.0 SW 28 35 15 19 1009.4 1009.4 0.0
15/01:30pm 34.0 28.6 8.1 20 14.5 SSW 26 33 14 18 1009.6 1009.6 0.0
15/01:00pm 33.9 26.7 5.0 16 15.4 SSW 32 39 17 21 1010.0 1010.0 0.0
15/12:30pm 29.7 22.7 10.1 29 11.1 SSW 37 48 20 26 1010.3 1010.3 0.0
15/12:00pm 27.0 23.0 16.1 51 6.7 SW 32 41 17 22 1009.7 1009.7 0.0
15/11:30am 27.6 25.5 15.3 47 7.5 SW 20 30 11 16 1008.9 1008.9 0.0
15/11:00am 28.3 26.3 15.4 45 7.9 WSW 20 26 11 14 1008.7 1008.7 0.0
15/10:30am 31.5 29.7 10.7 27 12.0 WSW 11 15 6 8 1008.4 1008.4 0.0
15/10:00am 35.5 31.7 1.9 12 17.2 N 11 15 6 8 1008.4 1008.4 0.0
15/09:30am 33.9 30.2 4.3 15 15.6 NE 13 15 7 8 1008.1 1008.1 0.0
15/09:00am 31.5 28.2 4.4 18 14.1 NNE 11 13 6 7 1008.4 1008.4 0.0
15/08:30am 29.7 26.8 4.8 20 12.9 NE 9 11 5 6 1008.7 1008.7 0.0
15/08:00am 27.8 25.9 6.6 26 11.2 E 6 9 3 5 1008.7 1008.7 0.0
15/07:30am 24.2 21.6 6.1 31 9.3 ESE 9 11 5 6 1009.1 1009.1 0.0
15/07:00am 22.0 19.9 6.8 37 7.8 S 7 11 4 6 1009.2 1009.2 0.0
15/06:30am 20.3 17.9 6.9 41 6.8 SE 9 9 5 5 1009.0 1009.0 0.0
15/06:00am 19.5 17.7 9.3 51 5.4 SSE 9 9 5 5 1008.9 1008.9 0.0
15/05:30am 19.6 18.8 9.7 52 5.3 SSE 4 7 2 4 1008.4 1008.4 0.0
15/05:00am 20.3 18.8 9.2 49 5.9 SSE 7 9 4 5 1007.8 1007.8 0.0
15/04:30am 20.4 20.1 8.6 46 6.2 CALM 0 0 0 0 1007.6 1007.6 0.0
15/04:00am 20.2 19.9 10.0 52 5.5 ENE 2 6 1 3 1007.7 1007.7 0.0
15/03:30am 21.7 18.7 7.9 41 7.2 NE 13 13 7 7 1007.8 1007.8 0.0
15/03:00am 21.0 20.8 10.3 50 5.8 NE 2 9 1 5 1008.2 1008.2 0.0
15/02:30am 21.5 19.6 10.5 49 6.0 ENE 11 13 6 7 1008.3 1008.3 0.0
15/02:00am 22.4 22.6 13.0 55 5.4 N 4 7 2 4 1008.5 1008.5 0.0
15/01:30am 23.4 23.4 14.2 56 5.4 W 7 7 4 4 1008.5 1008.5 0.0
15/01:00am 24.1 22.7 13.5 51 6.2 WSW 13 17 7 9 1008.7 1008.7 0.0
15/12:30am 24.5 22.8 7.7 34 8.9 N 6 7 3 4 1008.6 1008.6 0.0
15/12:00am 25.8 23.3 4.6 25 10.7 NE 7 7 4 4 1008.7 1008.7 0.0
 
Date/Time
CDT
Temp
°C
App
Temp
°C
Dew
Point
°C
Rel
Hum
%
Delta-T
°C
Wind Press
QNH
hPa
Press
MSL
hPa
Rain since
9am
mm
Dir  Spd
km/h
Gust
km/h
Spd
kts
Gust
kts
14/11:30pm 27.6 24.6 2.3 19 12.4 ESE 7 7 4 4 1008.7 1008.7 0.0
14/11:00pm 29.1 25.3 -0.7 14 14.0 E 9 11 5 6 1009.2 1009.2 0.0
14/10:30pm 28.1 24.4 2.6 19 12.6 ESE 11 15 6 8 1009.4 1009.4 0.0

Other Formats:

Comma delimited format used in spreadsheet applications
http://www.bom.gov.au/fwo/IDS60801/IDS60801.94672.axf

JavaScript Object Notation format (JSON) in row-major order
http://www.bom.gov.au/fwo/IDS60801/IDS60801.94672.json